• Join FlightAware (Why Join?)
  • Login
  • US Flag 
10:18PM EST


 

Airport Tracker/Info


-or-


 

Live Flight TrackerFlight Track Log ✈ C-FTOH ✈ 14-Apr-2013 ✈ KFLL - CYQB

Flight Track Log - Related Links

Times and Time Zones

All times are in EDT time to prevent confusion due to time zone crossing. See the C-FTOH flight status page for this flight to view local times or setup timezone preferences in your user account.

Time Position Orientation Groundspeed Altitude Reporting Facility
EDT Latitude Longitude Course Direction KTS MPH feet Rate Location/Type
09:34PM 26.0770 -80.1350 90° East 175 201 500  Level FlightAware
09:34PM 26.0780 -80.1150 87° East 188 216 1,300 1,740 Climbing FlightAware
09:35PM 26.0790 -80.0820 88° East 216 249 2,100 1,380 Climbing FlightAware
09:35PM 26.0760 -80.0430 95° East 263 303 2,700 2,400 Climbing FlightAware
09:36PM 26.0780 -80.0100 86° East 262 302 4,300 3,120 Climbing FlightAware
09:36PM 26.0920 -79.9740 67° East 281 323 5,600 2,700 Climbing FlightAware
09:36PM 26.1120 -79.9430 54° Northeast 286 329 6,800 2,640 Climbing FlightAware
09:37PM 26.1270 -79.9200 54° Northeast 290 334 7,600 2,400 Climbing FlightAware
09:37PM 26.1560 -79.8720 56° Northeast 302 348 9,200 2,220 Climbing FlightAware
09:38PM 26.1900 -79.8180 55° Northeast 325 374 10,600 1,860 Climbing FlightAware
09:39PM 26.2250 -79.7600 56° Northeast 355 409 11,700 1,920 Climbing FlightAware
09:40PM 26.2690 -79.6890 55° Northeast 375 432 13,400 2,220 Climbing FlightAware
09:40PM 26.3090 -79.6240 56° Northeast 385 443 14,900 2,220 Climbing FlightAware
09:41PM 26.3590 -79.5510 53° Northeast 398 458 16,600 2,220 Climbing FlightAware
09:42PM 26.4210 -79.5030 35° Northeast 405 466 18,100 1,980 Climbing FlightAware
09:42PM 26.4850 -79.4570 33° Northeast 418 481 19,300 2,040 Climbing FlightAware
09:43PM 26.5560 -79.4060 33° Northeast 418 481 21,000 2,220 Climbing FlightAware
09:44PM 26.6240 -79.3580 32° Northeast 419 482 22,500 1,740 Climbing FlightAware
09:44PM 26.6980 -79.3050 33° Northeast 425 489 23,500 1,200 Climbing FlightAware
09:45PM 26.7670 -79.2560 32° Northeast 441 507 24,200 960 Climbing FlightAware
09:46PM 26.8340 -79.2080 33° Northeast 464 534 24,800 1,020 Climbing FlightAware
09:47PM 26.9200 -79.1460 33° Northeast 477 549 25,700 1,380 Climbing FlightAware
09:47PM 26.9940 -79.0930 33° Northeast 26,700 1,440 Climbing FlightAware
09:48PM 27.0810 -79.0300 33° Northeast 482 555 27,800 1,440 Climbing FlightAware
09:49PM 27.1760 -78.9620 32° Northeast 480 552 29,000 1,320 Climbing FlightAware
09:50PM 27.2660 -78.8970 33° Northeast 484 557 29,900 1,260 Climbing FlightAware
09:50PM 27.3400 -78.8540 27° Northeast 463 533 30,800 1,380 Climbing FlightAware
09:51PM 27.4380 -78.8250 15° North 448 516 31,900 1,020 Climbing FlightAware
09:52PM 27.5750 -78.7890 13° North 448 516 32,800 1,020 Climbing FlightAware
09:53PM 27.6300 -78.7740 14° North 450 518 33,600 660 Climbing FlightAware
09:54PM 27.7360 -78.7460 13° North 450 518 33,800 120 Climbing FlightAware
09:54PM 27.8050 -78.7280 13° North 450 518 33,800  Level FlightAware
09:55PM 27.8740 -78.7100 13° North 450 518 33,800 420 Level FlightAware
09:56PM 28.0040 -78.6730 14° North 35,000 600 Climbing FlightAware
09:57PM 28.1539 -78.6322 14° North 445 512 35,000  Level Miami Center
09:58PM 28.2817 -78.5989 13° North 445 512 35,000  Level Miami Center
09:59PM 28.4031 -78.5653 14° North 450 518 35,000  Level Miami Center
10:00PM 28.5308 -78.5294 14° North 450 518 35,000 -60 Level Miami Center
10:01PM 28.6567 -78.4958 13° North 455 524 34,900  Descending Miami Center
10:02PM 28.7842 -78.4644 12° North 449 517 35,000  Climbing Miami Center
10:03PM 28.8994 -78.4258 16° North 452 520 34,900  Descending Miami Center
10:04PM 29.0292 -78.3944 12° North 452 520 35,000  Climbing Miami Center
10:05PM 29.1589 -78.3631 12° North 457 526 34,900  Descending Miami Center
10:06PM 29.2761 -78.3242 16° North 450 518 35,000  Climbing Miami Center
10:07PM 29.4078 -78.2903 13° North 456 525 35,000 -60 Level Miami Center
10:08PM 29.5353 -78.2561 13° North 465 535 34,900  Descending Miami Center
10:09PM 29.6589 -78.2194 14° North 465 535 35,000 60 Climbing Miami Center
10:09PM 29.7064 -78.2017 18° North 467 537 35,000  Level Jacksonville Center
10:10PM 29.8303 -78.1644 15° North 462 532 35,000  Level Jacksonville Center
10:11PM 29.9564 -78.1297 13° North 456 525 35,000  Level Jacksonville Center
10:12PM 30.0822 -78.0922 14° North 462 532 35,000 -60 Level Jacksonville Center
10:13PM 30.2039 -78.0547 15° North 462 532 34,900  Descending Jacksonville Center
10:14PM 30.3364 -78.0242 11° North 469 540 35,000  Climbing Jacksonville Center
10:15PM 30.4600 -77.9817 17° North 469 540 34,900 -60 Descending Jacksonville Center
10:16PM 30.5861 -77.9486 13° North 457 526 34,900  Level Jacksonville Center
10:17PM 30.7139 -77.9083 15° North 476 548 35,000  Climbing Jacksonville Center
10:18PM 30.8397 -77.8750 13° North 476 548 35,000  Level Jacksonville Center
10:19PM 30.9678 -77.8392 13° North 466 536 35,000  Level Jacksonville Center
10:20PM 31.0936 -77.8008 15° North 472 543 35,000 -60 Level Jacksonville Center
10:21PM 31.2194 -77.7650 14° North 473 544 34,900  Descending Jacksonville Center
10:22PM 31.3475 -77.7311 13° North 466 536 35,000  Climbing Jacksonville Center
10:23PM 31.4772 -77.6850 17° North 475 547 35,000 -60 Level Jacksonville Center
10:24PM 31.6053 -77.6533 12° North 463 533 34,900  Descending Jacksonville Center
10:25PM 31.7311 -77.6194 13° North 469 540 35,000  Climbing Jacksonville Center
10:26PM 31.8631 -77.5800 14° North 469 540 34,900 -60 Descending Jacksonville Center
10:27PM 31.9925 -77.5333 17° North 469 540 34,900  Level Jacksonville Center
10:28PM 32.1206 -77.4989 13° North 474 545 34,900  Level Jacksonville Center
10:29PM 32.2483 -77.4619 14° North 469 540 35,000  Climbing Jacksonville Center
10:30PM 32.3783 -77.4247 14° North 469 540 34,900  Descending Jacksonville Center
10:31PM 32.5061 -77.3900 13° North 474 545 35,000  Climbing Jacksonville Center
10:32PM 32.6378 -77.3450 16° North 474 545 35,000 -60 Level Jacksonville Center
10:33PM 32.7697 -77.3072 14° North 479 551 34,900  Descending Jacksonville Center
10:35PM 32.9736 -77.2450 14° North 471 542 35,000  Climbing Washington Center
10:36PM 33.1033 -77.2078 14° North 471 542 35,000  Level Washington Center
10:37PM 33.2353 -77.1683 14° North 478 550 35,000  Level Washington Center
10:38PM 33.3650 -77.1283 14° North 478 550 35,000 -60 Level Washington Center
10:39PM 33.4969 -77.0883 14° North 478 550 34,900 -60 Descending Washington Center
10:40PM 33.6289 -77.0483 14° North 478 550 34,900  Level Washington Center
10:41PM 33.7608 -77.0058 15° North 478 550 34,900  Level Washington Center
10:42PM 33.8928 -76.9681 13° North 484 557 35,000  Climbing Washington Center
10:43PM 34.0244 -76.9275 14° North 484 557 35,000 360 Level Washington Center
10:44PM 34.1586 -76.8847 15° North 484 557 35,800 900 Climbing Washington Center
10:45PM 34.2883 -76.8439 15° North 484 557 36,800 540 Climbing Washington Center
10:46PM 34.4161 -76.8031 15° North 479 551 37,000 60 Climbing Washington Center
10:47PM 34.5458 -76.7647 14° North 474 545 37,000  Level Washington Center
10:48PM 34.6733 -76.7233 15° North 474 545 37,000  Level Washington Center
10:49PM 34.8011 -76.6822 15° North 474 545 37,000  Level Washington Center
10:50PM 34.9308 -76.6408 15° North 474 545 37,000  Level Washington Center
10:51PM 35.0583 -76.6019 14° North 474 545 37,000  Level Washington Center
10:52PM 35.1839 -76.5628 14° North 474 545 37,000  Level Washington Center
10:53PM 35.3075 -76.5236 14° North 468 539 37,000 -60 Level Washington Center
10:54PM 35.4433 -76.4794 15° North 463 533 36,900 -60 Descending Washington Center
10:55PM 35.5689 -76.4372 15° North 457 526 36,900  Level Washington Center
10:56PM 35.6942 -76.3978 14° North 457 526 37,000  Climbing Washington Center
10:57PM 35.8219 -76.3553 15° North 457 526 37,000  Level Washington Center
11:03PM 36.5370 -76.1230 15° North 463 533 37,000  Level FlightAware
11:03PM 36.6180 -76.0960 15° North 463 533 37,000  Level FlightAware
11:04PM 36.6880 -76.0730 15° North 463 533 37,000  Level FlightAware
11:05PM 36.8260 -76.0270 15° North 472 543 37,000  Level FlightAware
11:05PM 36.8759 -76.0107 15° North 473 544 37,000  Level FlightAware ADS-B
11:06PM 36.9396 -75.9894 15° North 474 545 37,000  Level FlightAware ADS-B
11:06PM 37.0043 -75.9678 15° North 474 545 37,000  Level FlightAware ADS-B
11:07PM 37.0683 -75.9463 15° North 475 547 37,000  Level FlightAware ADS-B
11:07PM 37.1358 -75.9236 15° North 475 547 37,000  Level FlightAware ADS-B
11:08PM 37.2033 -75.9008 15° North 475 547 37,000  Level FlightAware ADS-B
11:08PM 37.2717 -75.8737 17° North 480 552 37,000  Level FlightAware ADS-B
11:09PM 37.3361 -75.8471 18° North 478 550 37,000  Level FlightAware ADS-B
11:09PM 37.3993 -75.8210 18° North 477 549 37,000  Level FlightAware ADS-B
11:11PM 37.5330 -75.7660 18° North 474 545 37,000  Level FlightAware
11:11PM 37.6230 -75.7280 18° North 472 543 37,000  Level FlightAware
11:12PM 37.7142 -75.6910 18° North 472 543 37,000  Level FlightAware ADS-B
11:12PM 37.7791 -75.6641 18° North 474 545 37,000  Level FlightAware ADS-B
11:13PM 37.8445 -75.6369 18° North 474 545 37,000  Level FlightAware ADS-B
11:14PM 37.9854 -75.5781 18° North 475 547 37,000  Level FlightAware ADS-B
11:15PM 38.0497 -75.5512 18° North 475 547 37,000  Level FlightAware ADS-B
11:15PM 38.1145 -75.5240 18° North 475 547 37,000  Level FlightAware ADS-B
11:16PM 38.1811 -75.4961 18° North 475 547 37,000  Level FlightAware ADS-B
11:16PM 38.2485 -75.4679 18° North 475 547 37,000  Level FlightAware ADS-B
11:17PM 38.3119 -75.4414 18° North 476 548 37,000  Level FlightAware ADS-B
11:17PM 38.3810 -75.4122 18° North 478 550 37,000  Level FlightAware ADS-B
11:18PM 38.4471 -75.3840 18° North 477 549 37,000  Level FlightAware ADS-B
11:18PM 38.5117 -75.3565 18° North 477 549 37,000  Level FlightAware ADS-B
11:19PM 38.5799 -75.3276 18° North 477 549 37,000  Level FlightAware ADS-B
11:19PM 38.6494 -75.2979 18° North 476 548 37,000  Level FlightAware ADS-B
11:20PM 38.7148 -75.2700 18° North 477 549 37,000  Level FlightAware ADS-B
11:20PM 38.7775 -75.2432 18° North 477 549 37,000  Level FlightAware ADS-B
11:21PM 38.8402 -75.2164 18° North 477 549 37,000  Level FlightAware ADS-B
11:21PM 38.9052 -75.1887 18° North 478 550 37,000  Level FlightAware ADS-B
11:22PM 38.9686 -75.1616 18° North 478 550 37,000  Level FlightAware ADS-B
11:22PM 39.0318 -75.1343 19° North 478 550 37,000  Level FlightAware ADS-B
11:23PM 39.0970 -75.1062 18° North 479 551 37,000  Level FlightAware ADS-B
11:23PM 39.1623 -75.0780 19° North 478 550 37,000  Level FlightAware ADS-B
11:24PM 39.2261 -75.0504 19° North 478 550 37,000  Level FlightAware ADS-B
11:24PM 39.2899 -75.0227 19° North 477 549 37,000  Level FlightAware ADS-B
11:25PM 39.3545 -74.9946 19° North 476 548 37,000  Level FlightAware ADS-B
11:25PM 39.4202 -74.9659 19° North 474 545 37,000  Level FlightAware ADS-B
11:26PM 39.5032 -74.9297 19° North 471 542 37,000  Level FlightAware ADS-B
11:27PM 39.5712 -74.9000 19° North 470 541 37,000  Level FlightAware ADS-B
11:27PM 39.6546 -74.8634 19° North 469 540 37,000  Level FlightAware ADS-B
11:28PM 39.7175 -74.8359 19° North 468 539 37,000  Level FlightAware ADS-B
11:29PM 39.7928 -74.8026 19° North 468 539 37,000  Level FlightAware ADS-B
11:29PM 39.8623 -74.7719 19° North 468 539 37,000  Level FlightAware ADS-B
11:30PM 39.9287 -74.7426 19° North 469 540 37,000  Level FlightAware ADS-B
11:30PM 39.9912 -74.7149 19° North 470 541 37,000  Level FlightAware ADS-B
11:31PM 40.0531 -74.6875 19° North 470 541 37,000  Level FlightAware ADS-B
11:31PM 40.1151 -74.6600 19° North 470 541 37,000  Level FlightAware ADS-B
11:32PM 40.1777 -74.6321 19° North 471 542 37,000  Level FlightAware ADS-B
11:32PM 40.2423 -74.6032 19° North 470 541 37,000  Level FlightAware ADS-B
11:33PM 40.3109 -74.5725 19° North 472 543 37,000  Level FlightAware ADS-B
11:33PM 40.3735 -74.5444 19° North 471 542 37,000  Level FlightAware ADS-B
11:34PM 40.4368 -74.5158 19° North 470 541 37,000  Level FlightAware ADS-B
11:34PM 40.5160 -74.4800 19° North 468 539 37,000  Level FlightAware
11:34PM 40.5209 -74.4780 17° North 468 539 37,000  Level FlightAware ADS-B
11:35PM 40.5826 -74.4502 19° North 468 539 37,000  Level FlightAware ADS-B
11:35PM 40.6469 -74.4211 19° North 469 540 37,000  Level FlightAware ADS-B
11:36PM 40.7116 -74.3918 19° North 470 541 37,000  Level FlightAware ADS-B
11:36PM 40.7690 -74.3660 19° North 469 540 37,000  Level FlightAware
11:37PM 40.7781 -74.3616 20° North 470 541 37,000  Level FlightAware ADS-B
11:37PM 40.8421 -74.3324 19° North 470 541 37,000  Level FlightAware ADS-B
11:38PM 40.9040 -74.3042 19° North 469 540 37,000  Level FlightAware ADS-B
11:38PM 40.9656 -74.2761 19° North 468 539 37,000  Level FlightAware ADS-B
11:39PM 41.0278 -74.2476 19° North 468 539 37,000  Level FlightAware ADS-B
11:39PM 41.0616 -74.2321 19° North 467 537 37,000  Level FlightAware ADS-B
11:39PM 41.0895 -74.2193 19° North 466 536 37,000  Level FlightAware ADS-B
11:40PM 41.1526 -74.1902 19° North 465 535 37,000  Level FlightAware ADS-B
11:40PM 41.2134 -74.1622 19° North 465 535 37,000  Level FlightAware ADS-B
11:41PM 41.2743 -74.1343 19° North 465 535 37,000  Level FlightAware ADS-B
11:41PM 41.2930 -74.1257 19° North 465 535 37,000  Level FlightAware ADS-B
11:41PM 41.3358 -74.1059 19° North 465 535 37,000  Level FlightAware ADS-B
11:42PM 41.3969 -74.0776 19° North 465 535 37,000  Level FlightAware ADS-B
11:42PM 41.4597 -74.0485 19° North 466 536 37,000  Level FlightAware ADS-B
11:43PM 41.5217 -74.0197 19° North 466 536 37,000  Level FlightAware ADS-B
11:43PM 41.5833 -73.9909 19° North 466 536 37,000  Level FlightAware ADS-B
11:44PM 41.6456 -73.9618 19° North 467 537 37,000  Level FlightAware ADS-B
11:44PM 41.7073 -73.9328 19° North 465 535 37,000  Level FlightAware ADS-B
11:45PM 41.7689 -73.9039 19° North 466 536 37,000  Level FlightAware ADS-B
11:45PM 41.8313 -73.8745 19° North 464 534 37,000  Level FlightAware ADS-B
11:46PM 41.8933 -73.8453 19° North 463 533 37,000  Level FlightAware ADS-B
11:46PM 41.9543 -73.8166 19° North 463 533 37,000  Level FlightAware ADS-B
11:47PM 42.0171 -73.7869 19° North 462 532 37,000  Level FlightAware ADS-B
11:47PM 42.0786 -73.7576 19° North 461 531 37,000  Level FlightAware ADS-B
11:48PM 42.1520 -73.7229 19° North 459 528 37,000  Level FlightAware ADS-B
11:48PM 42.2050 -73.6980 19° North 459 528 37,000  Level FlightAware
11:49PM 42.2665 -73.6685 20° North 460 529 37,000  Level FlightAware ADS-B
11:49PM 42.3291 -73.6385 20° North 461 531 37,000  Level FlightAware ADS-B
11:50PM 42.4710 -73.5710 19° North 459 528 37,000  Level FlightAware
11:51PM 42.5520 -73.5320 20° North 459 528 37,000  Level FlightAware
11:52PM 42.6310 -73.4940 19° North 458 527 37,000  Level FlightAware
11:53PM 42.7220 -73.4500 20° North 457 526 37,000  Level FlightAware
11:53PM 42.8010 -73.4110 20° North 458 527 37,000  Level FlightAware
11:54PM 42.8830 -73.3720 19° North 458 527 37,000  Level FlightAware
11:55PM 42.9680 -73.3300 20° North 454 522 37,000  Level FlightAware
11:55PM 43.0440 -73.2920 20° North 453 521 37,000  Level FlightAware
11:56PM 43.0620 -73.2840 18° North 453 521 37,000  Level FlightAware
11:57PM 43.1350 -73.2480 20° North 451 519 37,000  Level FlightAware
11:57PM 43.2140 -73.2090 20° North 452 520 37,000  Level FlightAware
11:58PM 43.2920 -73.1710 20° North 450 518 37,000  Level FlightAware
11:59PM 43.3920 -73.1210 20° North 447 514 37,000  Level FlightAware
12:00AM 43.4580 -73.0880 20° North 446 513 37,000  Level FlightAware
12:00AM 43.5300 -73.0530 19° North 446 513 37,000  Level FlightAware
12:01AM 43.6120 -73.0110 20° North 445 512 37,000  Level FlightAware
12:02AM 43.7860 -72.9240 20° North 448 516 37,000  Level FlightAware
12:03AM 43.9260 -72.8540 20° North 448 516 37,000  Level FlightAware
12:03AM 44.0020 -72.8150 20° North 448 516 37,000  Level FlightAware
12:04AM 44.0780 -72.7760 20° North 448 516 37,000  Level FlightAware
12:05AM 44.1710 -72.7290 20° North 447 514 37,000  Level FlightAware
12:06AM 44.2470 -72.6900 20° North 447 514 37,000  Level FlightAware
12:06AM 44.3320 -72.6460 20° North 446 513 37,000  Level FlightAware
12:07AM 44.4100 -72.6060 20° North 445 512 37,000 -480 Level FlightAware
12:08AM 44.4960 -72.5620 20° North 444 511 36,400 -960 Descending FlightAware
12:08AM 44.5750 -72.5210 20° North 443 510 35,700 -1,020 Descending FlightAware
12:09AM 44.6540 -72.4810 20° North 451 519 35,100 -960 Descending FlightAware
12:10AM 44.7380 -72.4370 20° North 438 504 34,400 -1,020 Descending FlightAware
12:10AM 44.8140 -72.3970 20° North 433 498 33,700 -900 Descending FlightAware
12:11AM 44.8990 -72.3520 21° North 426 490 33,200 -660 Descending FlightAware
12:12AM 44.9740 -72.3130 20° North 429 494 32,800 -840 Descending FlightAware
12:13AM 45.0480 -72.2740 20° North 427 491 32,100 -1,440 Descending FlightAware
12:13AM 45.1050 -72.2440 20° North 425 489 31,000 -1,980 Descending FlightAware
12:14AM 45.1940 -72.1970 20° North 408 470 29,300 -2,040 Descending FlightAware
12:15AM 45.2620 -72.1610 20° North 394 453 28,000 -2,040 Descending FlightAware
12:15AM 45.3250 -72.1270 21° North 381 438 26,800 -1,920 Descending FlightAware
12:16AM 45.4230 -72.0750 20° North 358 412 25,000 -1,800 Descending FlightAware
12:17AM 45.4920 -72.0380 21° North 345 397 23,700 -1,740 Descending FlightAware
12:18AM 45.5600 -72.0020 20° North 347 399 22,400 -1,680 Descending FlightAware
12:18AM 45.6270 -71.9660 21° North 350 403 21,200 -1,680 Descending FlightAware
12:20AM 45.7167 -71.8833 21° North 340 391 19,300 -1,620 Descending Montreal Center
12:21AM 45.8000 -71.8500 16° North 340 391 17,800 -1,620 Descending Montreal Center
12:22AM 45.8833 -71.8000 23° Northeast 330 380 16,100 -1,800 Descending Montreal Center
12:23AM 45.9833 -71.7500 19° North 320 368 14,300 -1,740 Descending Montreal Center
12:24AM 46.0667 -71.7167 16° North 310 357 12,700 -1,560 Descending Montreal Center
12:25AM 46.1333 -71.6833 19° North 300 345 11,200 -1,200 Descending Montreal Center
12:26AM 46.2167 -71.6833 360° North 290 334 10,300 -900 Descending Montreal Center
12:27AM 46.3000 -71.6500 15° North 270 311 9,400 -1,140 Descending Montreal Center
12:28AM 46.3667 -71.6333 10° North 260 299 8,100 -1,260 Descending Montreal Center
12:29AM 46.4333 -71.6333 360° North 250 288 6,900 -1,200 Descending Montreal Center
12:30AM 46.5000 -71.6000 19° North 250 288 5,800 -1,080 Descending Montreal Center
12:31AM 46.5667 -71.6000 360° North 230 265 4,800 -840 Descending Montreal Center
12:37AM 46.7910 -71.3940 360° North 142 163 100 -780 Descending FlightAware